DLH457 KLAX-EDDF
Flight info
| Callsign | DLH457 |
|---|---|
| Flight time | N/A |
| Altitude | 35000 |
| Route | OSHNN1 BEALE Q842 WINEN DCT KU60O DCT KU78Q DCT KU06S DCT KU15U DCT EMLIK DCT 52N100W 57N090W 60N080W DCT BEPEG DCT NALDI/M083F350 DCT AVPUT DCT 66N050W 6530N04000W 64N030W 61N020W DCT ETILO/N0469F350 DCT EVNAL DCT ERKIT N110 DOLAS DCT NAVPI DCT SOGPO DCT DIXAT DIXAT1D |
| Aircraft | A388/J-SADE2E3FGHIJ3J4J5M1RWXY/LB1D1 |
Departure
| Time | 2026-04-23 09:30 |
|---|---|
| Airport | Los Angeles International Airport (KLAX) |
Arrival
| Time | N/A |
|---|---|
| Airport | Frankfurt Main Airport (EDDF) |
| Time | Latitude | Longitude | Altitude | Speed | Heading |
|---|---|---|---|---|---|
| 2026-04-23 08:55 | 33.94098 | -118.41091 | 98 ft | 0 kts | 83° |
| 2026-04-23 09:15 | 33.94098 | -118.41093 | 116 ft | 2 kts | 83° |
| 2026-04-23 09:15 | 33.94097 | -118.41104 | 99 ft | 4 kts | 83° |
| 2026-04-23 09:16 | 33.94094 | -118.41135 | 98 ft | 4 kts | 85° |
| 2026-04-23 09:16 | 33.94092 | -118.41165 | 97 ft | 4 kts | 81° |
| 2026-04-23 09:16 | 33.94083 | -118.41191 | 98 ft | 4 kts | 28° |
| 2026-04-23 09:16 | 33.94059 | -118.41196 | 97 ft | 4 kts | 357° |
| 2026-04-23 09:17 | 33.94049 | -118.41195 | 97 ft | 1 kts | 0° |
| 2026-04-23 09:20 | 33.94065 | -118.41195 | 96 ft | 4 kts | 359° |
| 2026-04-23 09:21 | 33.94100 | -118.41196 | 99 ft | 6 kts | 357° |
| 2026-04-23 09:21 | 33.94122 | -118.41198 | 98 ft | 4 kts | 356° |
| 2026-04-23 09:21 | 33.94156 | -118.41202 | 99 ft | 6 kts | 350° |
| 2026-04-23 09:21 | 33.94204 | -118.41212 | 100 ft | 8 kts | 351° |
| 2026-04-23 09:22 | 33.94266 | -118.41220 | 99 ft | 10 kts | 354° |
| 2026-04-23 09:22 | 33.94337 | -118.41231 | 99 ft | 11 kts | 352° |
| 2026-04-23 09:22 | 33.94416 | -118.41245 | 100 ft | 12 kts | 354° |
| 2026-04-23 09:22 | 33.94500 | -118.41255 | 98 ft | 13 kts | 353° |
| 2026-04-23 09:23 | 33.94589 | -118.41269 | 98 ft | 13 kts | 353° |
| 2026-04-23 09:23 | 33.94680 | -118.41282 | 100 ft | 14 kts | 353° |
| 2026-04-23 09:23 | 33.94766 | -118.41288 | 100 ft | 11 kts | 20° |
| 2026-04-23 09:23 | 33.94801 | -118.41229 | 102 ft | 9 kts | 84° |
| 2026-04-23 09:24 | 33.94806 | -118.41147 | 102 ft | 11 kts | 84° |
| 2026-04-23 09:24 | 33.94816 | -118.41053 | 103 ft | 12 kts | 83° |
| 2026-04-23 09:24 | 33.94827 | -118.40946 | 102 ft | 14 kts | 83° |
| 2026-04-23 09:24 | 33.94838 | -118.40828 | 99 ft | 15 kts | 83° |
| 2026-04-23 09:25 | 33.94850 | -118.40701 | 101 ft | 16 kts | 83° |
| 2026-04-23 09:25 | 33.94864 | -118.40567 | 102 ft | 16 kts | 83° |
| 2026-04-23 09:25 | 33.94880 | -118.40428 | 100 ft | 17 kts | 83° |
| 2026-04-23 09:25 | 33.94893 | -118.40295 | 100 ft | 16 kts | 80° |
| 2026-04-23 09:26 | 33.94901 | -118.40230 | 102 ft | 1 kts | 82° |
| 2026-04-23 09:26 | 33.94904 | -118.40204 | 102 ft | 5 kts | 83° |
| 2026-04-23 09:26 | 33.94909 | -118.40150 | 99 ft | 8 kts | 83° |
| 2026-04-23 09:26 | 33.94923 | -118.40081 | 99 ft | 7 kts | 48° |
| 2026-04-23 09:27 | 33.94952 | -118.40071 | 99 ft | 5 kts | 7° |
| 2026-04-23 09:27 | 33.94990 | -118.40066 | 100 ft | 5 kts | 349° |
| 2026-04-23 09:27 | 33.95012 | -118.40079 | 101 ft | 3 kts | 309° |
| 2026-04-23 09:27 | 33.95021 | -118.40105 | 102 ft | 4 kts | 278° |
| 2026-04-23 09:28 | 33.95024 | -118.40133 | 103 ft | 3 kts | 274° |
| 2026-04-23 09:28 | 33.95023 | -118.40148 | 105 ft | 0 kts | 261° |
| 2026-04-23 09:28 | 33.95023 | -118.40149 | 105 ft | 0 kts | 261° |
| 2026-04-23 09:29 | 33.94997 | -118.40394 | 102 ft | 68 kts | 263° |
| 2026-04-23 09:29 | 33.94908 | -118.41267 | 103 ft | 138 kts | 263° |
| 2026-04-23 09:29 | 33.94773 | -118.42614 | 113 ft | 181 kts | 265° |
| 2026-04-23 09:30 | 33.94617 | -118.44153 | 530 ft | 185 kts | 264° |
| 2026-04-23 09:30 | 33.94456 | -118.45654 | 1212 ft | 179 kts | 264° |
| 2026-04-23 09:30 | 33.94331 | -118.47142 | 1813 ft | 179 kts | 271° |
| 2026-04-23 09:30 | 33.94296 | -118.48700 | 2101 ft | 193 kts | 271° |
| 2026-04-23 09:31 | 33.94255 | -118.50375 | 2233 ft | 207 kts | 271° |
| 2026-04-23 09:31 | 33.94139 | -118.52129 | 2339 ft | 218 kts | 267° |
| 2026-04-23 09:31 | 33.93988 | -118.54006 | 2430 ft | 236 kts | 267° |
| 2026-04-23 09:31 | 33.93828 | -118.56060 | 2671 ft | 255 kts | 267° |
| 2026-04-23 09:32 | 33.93659 | -118.58222 | 3131 ft | 263 kts | 267° |
| 2026-04-23 09:32 | 33.93458 | -118.60403 | 3874 ft | 262 kts | 260° |
| 2026-04-23 09:32 | 33.92713 | -118.62411 | 4616 ft | 267 kts | 233° |
| 2026-04-23 09:32 | 33.91266 | -118.63807 | 5327 ft | 272 kts | 206° |
| 2026-04-23 09:33 | 33.89398 | -118.64288 | 5934 ft | 281 kts | 181° |
| 2026-04-23 09:33 | 33.87424 | -118.64158 | 6517 ft | 287 kts | 177° |
| 2026-04-23 09:33 | 33.85424 | -118.63926 | 7134 ft | 291 kts | 174° |
| 2026-04-23 09:33 | 33.83467 | -118.63224 | 7745 ft | 298 kts | 156° |
| 2026-04-23 09:34 | 33.81698 | -118.61875 | 8347 ft | 304 kts | 146° |
| 2026-04-23 09:34 | 33.79955 | -118.60396 | 8925 ft | 309 kts | 148° |
| 2026-04-23 09:34 | 33.78170 | -118.58931 | 9512 ft | 313 kts | 148° |
| 2026-04-23 09:34 | 33.76351 | -118.57457 | 10111 ft | 317 kts | 149° |
| 2026-04-23 09:35 | 33.74479 | -118.55946 | 10344 ft | 334 kts | 149° |
| 2026-04-23 09:35 | 33.72500 | -118.54349 | 10508 ft | 351 kts | 149° |
| 2026-04-23 09:35 | 33.70570 | -118.52504 | 10660 ft | 369 kts | 134° |
| 2026-04-23 09:35 | 33.69106 | -118.49931 | 11106 ft | 378 kts | 116° |
| 2026-04-23 09:36 | 33.68195 | -118.46956 | 11613 ft | 381 kts | 109° |
| 2026-04-23 09:36 | 33.67323 | -118.43932 | 12128 ft | 385 kts | 110° |
| 2026-04-23 09:36 | 33.66423 | -118.40896 | 12651 ft | 388 kts | 110° |
| 2026-04-23 09:36 | 33.65511 | -118.37839 | 13179 ft | 391 kts | 111° |
| 2026-04-23 09:37 | 33.64751 | -118.34679 | 13622 ft | 397 kts | 101° |
| 2026-04-23 09:37 | 33.64435 | -118.31369 | 14107 ft | 400 kts | 91° |
| 2026-04-23 09:37 | 33.64455 | -118.28020 | 14557 ft | 403 kts | 88° |
| 2026-04-23 09:37 | 33.64473 | -118.24635 | 14996 ft | 406 kts | 89° |
| 2026-04-23 09:38 | 33.64541 | -118.21237 | 15416 ft | 409 kts | 81° |
| 2026-04-23 09:38 | 33.65275 | -118.17992 | 15856 ft | 407 kts | 62° |
| 2026-04-23 09:38 | 33.66776 | -118.15144 | 16274 ft | 403 kts | 43° |
| 2026-04-23 09:38 | 33.68870 | -118.12979 | 16709 ft | 396 kts | 28° |
| 2026-04-23 09:39 | 33.71211 | -118.11232 | 17147 ft | 397 kts | 25° |
| 2026-04-23 09:39 | 33.73570 | -118.09483 | 17580 ft | 401 kts | 27° |
| 2026-04-23 09:39 | 33.75908 | -118.07610 | 17981 ft | 406 kts | 29° |
| 2026-04-23 09:39 | 33.77810 | -118.05992 | 18319 ft | 409 kts | 30° |
| 2026-04-23 09:40 | 33.80121 | -118.03957 | 18675 ft | 413 kts | 31° |
| 2026-04-23 09:40 | 33.82433 | -118.01884 | 19057 ft | 415 kts | 31° |
| 2026-04-23 09:40 | 33.84748 | -117.99796 | 19462 ft | 417 kts | 31° |
| 2026-04-23 09:40 | 33.87082 | -117.97690 | 19846 ft | 420 kts | 31° |
| 2026-04-23 09:41 | 33.89426 | -117.95577 | 20210 ft | 422 kts | 30° |
| 2026-04-23 09:41 | 33.91781 | -117.93452 | 20574 ft | 424 kts | 31° |
| 2026-04-23 09:41 | 33.94152 | -117.91292 | 20922 ft | 427 kts | 31° |
| 2026-04-23 09:41 | 33.96524 | -117.89118 | 21284 ft | 429 kts | 31° |
| 2026-04-23 09:42 | 33.98906 | -117.86936 | 21637 ft | 431 kts | 31° |
| 2026-04-23 09:42 | 34.01300 | -117.84742 | 21990 ft | 434 kts | 31° |
| 2026-04-23 09:42 | 34.03710 | -117.82534 | 22338 ft | 436 kts | 31° |
| 2026-04-23 09:42 | 34.06101 | -117.80343 | 22673 ft | 438 kts | 31° |
| 2026-04-23 09:43 | 34.08516 | -117.77994 | 22998 ft | 445 kts | 37° |
| 2026-04-23 09:43 | 34.10640 | -117.75291 | 23350 ft | 453 kts | 46° |
| 2026-04-23 09:43 | 34.12610 | -117.72312 | 23665 ft | 456 kts | 46° |
| 2026-04-23 09:43 | 34.14619 | -117.69318 | 23933 ft | 459 kts | 45° |
| 2026-04-23 09:44 | 34.16643 | -117.66323 | 24204 ft | 461 kts | 45° |
| 2026-04-23 09:44 | 34.18676 | -117.63315 | 24479 ft | 464 kts | 45° |
| 2026-04-23 09:44 | 34.20718 | -117.60280 | 24693 ft | 467 kts | 45° |
| 2026-04-23 09:44 | 34.22767 | -117.57231 | 24984 ft | 469 kts | 45° |
| 2026-04-23 09:45 | 34.24827 | -117.54170 | 25271 ft | 470 kts | 45° |
| 2026-04-23 09:45 | 34.26905 | -117.51091 | 25476 ft | 474 kts | 45° |
| 2026-04-23 09:45 | 34.28984 | -117.47990 | 25785 ft | 476 kts | 45° |
| 2026-04-23 09:45 | 34.31074 | -117.44867 | 26070 ft | 479 kts | 46° |
| 2026-04-23 09:46 | 34.33176 | -117.41722 | 26374 ft | 482 kts | 46° |
| 2026-04-23 09:46 | 34.35286 | -117.38564 | 26682 ft | 484 kts | 46° |
| 2026-04-23 09:46 | 34.37407 | -117.35388 | 27000 ft | 487 kts | 46° |
| 2026-04-23 09:46 | 34.39542 | -117.32189 | 27323 ft | 489 kts | 46° |
| 2026-04-23 09:47 | 34.41686 | -117.28974 | 27648 ft | 492 kts | 46° |
| 2026-04-23 09:47 | 34.43847 | -117.25731 | 27964 ft | 495 kts | 46° |
| 2026-04-23 09:47 | 34.46012 | -117.22478 | 28334 ft | 498 kts | 46° |
| 2026-04-23 09:47 | 34.48194 | -117.19195 | 28660 ft | 501 kts | 46° |
| 2026-04-23 09:48 | 34.50358 | -117.15939 | 28943 ft | 504 kts | 46° |
| 2026-04-23 09:48 | 34.52563 | -117.12617 | 29273 ft | 507 kts | 46° |
| 2026-04-23 09:48 | 34.54805 | -117.09236 | 29649 ft | 509 kts | 46° |
| 2026-04-23 09:48 | 34.57032 | -117.05955 | 29969 ft | 511 kts | 45° |
| 2026-04-23 09:49 | 34.59323 | -117.02640 | 30279 ft | 514 kts | 44° |
| 2026-04-23 09:49 | 34.61634 | -116.99301 | 30516 ft | 518 kts | 44° |
| 2026-04-23 09:49 | 34.63955 | -116.95937 | 30791 ft | 521 kts | 45° |
| 2026-04-23 09:49 | 34.66279 | -116.92553 | 31068 ft | 524 kts | 45° |
| 2026-04-23 09:50 | 34.68616 | -116.89141 | 31338 ft | 527 kts | 45° |
| 2026-04-23 09:50 | 34.70969 | -116.85699 | 31628 ft | 530 kts | 45° |
| 2026-04-23 09:50 | 34.73322 | -116.82251 | 31979 ft | 531 kts | 45° |
| 2026-04-23 09:50 | 34.75689 | -116.78783 | 32208 ft | 534 kts | 45° |
| 2026-04-23 09:51 | 34.77265 | -116.76472 | 32387 ft | 536 kts | 45° |
| 2026-04-23 09:51 | 34.80458 | -116.71784 | 32749 ft | 540 kts | 45° |
| 2026-04-23 09:51 | 34.82048 | -116.69448 | 32902 ft | 542 kts | 45° |
| 2026-04-23 09:51 | 34.84459 | -116.65900 | 33181 ft | 545 kts | 45° |
| 2026-04-23 09:52 | 34.86895 | -116.62349 | 33422 ft | 546 kts | 43° |
| 2026-04-23 09:52 | 34.89443 | -116.58910 | 33663 ft | 547 kts | 41° |
| 2026-04-23 09:52 | 34.92039 | -116.55516 | 34164 ft | 545 kts | 41° |
| 2026-04-23 09:52 | 34.94627 | -116.52124 | 34352 ft | 549 kts | 41° |
| 2026-04-23 09:53 | 34.97225 | -116.48692 | 34538 ft | 553 kts | 41° |
| 2026-04-23 09:53 | 34.99828 | -116.45223 | 34793 ft | 555 kts | 41° |
| 2026-04-23 09:53 | 35.02431 | -116.41738 | 35012 ft | 557 kts | 41° |
| 2026-04-23 09:54 | 35.07683 | -116.34684 | 35014 ft | 559 kts | 41° |
| 2026-04-23 09:54 | 35.12904 | -116.27646 | 35011 ft | 561 kts | 41° |
| 2026-04-23 09:55 | 35.18141 | -116.20579 | 35017 ft | 559 kts | 41° |
| 2026-04-23 09:55 | 35.23369 | -116.13518 | 35051 ft | 560 kts | 41° |
| 2026-04-23 09:56 | 35.28599 | -116.06435 | 35011 ft | 561 kts | 41° |
| 2026-04-23 09:56 | 35.33789 | -115.99391 | 35024 ft | 560 kts | 41° |
| 2026-04-23 09:57 | 35.39013 | -115.92284 | 35026 ft | 561 kts | 41° |
| 2026-04-23 09:57 | 35.44242 | -115.85160 | 35038 ft | 562 kts | 41° |
| 2026-04-23 09:58 | 35.49468 | -115.78022 | 35042 ft | 562 kts | 41° |
| 2026-04-23 09:58 | 35.54688 | -115.70877 | 35044 ft | 562 kts | 41° |
| 2026-04-23 09:59 | 35.59913 | -115.63710 | 35084 ft | 563 kts | 41° |
| 2026-04-23 09:59 | 35.65144 | -115.56520 | 35053 ft | 565 kts | 41° |
| 2026-04-23 10:00 | 35.70377 | -115.49315 | 35059 ft | 565 kts | 41° |
| 2026-04-23 10:00 | 35.75614 | -115.42080 | 35054 ft | 565 kts | 41° |
| 2026-04-23 10:01 | 35.80842 | -115.34845 | 35059 ft | 565 kts | 41° |
| 2026-04-23 10:01 | 35.86073 | -115.27592 | 35049 ft | 566 kts | 41° |
| 2026-04-23 10:02 | 35.91268 | -115.20372 | 35046 ft | 566 kts | 41° |
| 2026-04-23 10:02 | 35.96497 | -115.13088 | 35041 ft | 566 kts | 41° |
| 2026-04-23 10:03 | 36.01708 | -115.05816 | 35035 ft | 566 kts | 41° |
| 2026-04-23 10:03 | 36.06918 | -114.98529 | 34995 ft | 566 kts | 41° |
| 2026-04-23 10:04 | 36.12120 | -114.91237 | 34948 ft | 565 kts | 41° |
| 2026-04-23 10:04 | 36.17531 | -114.84275 | 34941 ft | 553 kts | 31° |
| 2026-04-23 10:05 | 36.23756 | -114.78979 | 34943 ft | 535 kts | 17° |
| 2026-04-23 10:05 | 36.30269 | -114.74699 | 34934 ft | 534 kts | 18° |
| 2026-04-23 10:06 | 36.36823 | -114.70326 | 34904 ft | 534 kts | 17° |
| 2026-04-23 10:06 | 36.43361 | -114.65977 | 34910 ft | 534 kts | 17° |
| 2026-04-23 10:07 | 36.49910 | -114.61611 | 34934 ft | 535 kts | 17° |
| 2026-04-23 10:07 | 36.56464 | -114.57238 | 34924 ft | 534 kts | 17° |
| 2026-04-23 10:08 | 36.63001 | -114.52870 | 34915 ft | 533 kts | 17° |
| 2026-04-23 10:08 | 36.69528 | -114.48499 | 34917 ft | 532 kts | 17° |
| 2026-04-23 10:09 | 36.79092 | -114.41175 | 34924 ft | 539 kts | 21° |
| 2026-04-23 10:09 | 36.85442 | -114.36205 | 34919 ft | 539 kts | 21° |
| 2026-04-23 10:10 | 36.91790 | -114.31218 | 34925 ft | 540 kts | 21° |
| 2026-04-23 10:10 | 36.98152 | -114.26200 | 34929 ft | 539 kts | 21° |
| 2026-04-23 10:11 | 37.04470 | -114.21221 | 34937 ft | 541 kts | 21° |
| 2026-04-23 10:11 | 37.10826 | -114.16197 | 34946 ft | 540 kts | 21° |
| 2026-04-23 10:12 | 37.17177 | -114.11162 | 34953 ft | 540 kts | 21° |
| 2026-04-23 10:12 | 37.23527 | -114.06122 | 34965 ft | 540 kts | 21° |
| 2026-04-23 10:13 | 37.29880 | -114.01068 | 34961 ft | 541 kts | 21° |
| 2026-04-23 10:13 | 37.36248 | -113.95996 | 34970 ft | 542 kts | 21° |
| 2026-04-23 10:14 | 37.42603 | -113.90913 | 34971 ft | 542 kts | 21° |
| 2026-04-23 10:14 | 37.48975 | -113.85813 | 34988 ft | 542 kts | 21° |
| 2026-04-23 10:15 | 37.55345 | -113.80703 | 35032 ft | 543 kts | 22° |
| 2026-04-23 10:15 | 37.61722 | -113.75577 | 35004 ft | 543 kts | 22° |
| 2026-04-23 10:16 | 37.68101 | -113.70440 | 35007 ft | 544 kts | 22° |
| 2026-04-23 10:16 | 37.74477 | -113.65292 | 34993 ft | 543 kts | 22° |
| 2026-04-23 10:17 | 37.80844 | -113.60143 | 35038 ft | 543 kts | 22° |
| 2026-04-23 10:17 | 37.87213 | -113.54982 | 35007 ft | 543 kts | 23° |
| 2026-04-23 10:18 | 37.93533 | -113.49867 | 34998 ft | 540 kts | 21° |
| 2026-04-23 10:18 | 38.00066 | -113.45271 | 34993 ft | 536 kts | 19° |
| 2026-04-23 10:19 | 38.06576 | -113.40695 | 35032 ft | 536 kts | 19° |
| 2026-04-23 10:19 | 38.13114 | -113.36083 | 35015 ft | 535 kts | 20° |
| 2026-04-23 10:20 | 38.19633 | -113.31474 | 35012 ft | 534 kts | 20° |
| 2026-04-23 10:20 | 38.26091 | -113.26898 | 35024 ft | 534 kts | 20° |
| 2026-04-23 10:21 | 38.32596 | -113.22281 | 35038 ft | 533 kts | 20° |
| 2026-04-23 10:21 | 38.39041 | -113.17696 | 35051 ft | 533 kts | 20° |
| 2026-04-23 10:22 | 38.45530 | -113.13071 | 35061 ft | 533 kts | 20° |
| 2026-04-23 10:22 | 38.52014 | -113.08441 | 35061 ft | 533 kts | 21° |
| 2026-04-23 10:23 | 38.58484 | -113.03811 | 35081 ft | 533 kts | 22° |
| 2026-04-23 10:23 | 38.64928 | -112.99186 | 35049 ft | 533 kts | 22° |
| 2026-04-23 10:24 | 38.71408 | -112.94527 | 35016 ft | 532 kts | 22° |
| 2026-04-23 10:24 | 38.77826 | -112.89904 | 35018 ft | 532 kts | 22° |
| 2026-04-23 10:25 | 38.84284 | -112.85244 | 35036 ft | 531 kts | 23° |
| 2026-04-23 10:25 | 38.90686 | -112.80612 | 35037 ft | 530 kts | 23° |
| 2026-04-23 10:26 | 38.97115 | -112.75953 | 35016 ft | 529 kts | 23° |
| 2026-04-23 10:26 | 39.03549 | -112.71280 | 35017 ft | 529 kts | 23° |
| 2026-04-23 10:27 | 39.09922 | -112.66642 | 35033 ft | 529 kts | 24° |
| 2026-04-23 10:27 | 39.16349 | -112.61952 | 35030 ft | 528 kts | 24° |
| 2026-04-23 10:28 | 39.22708 | -112.57305 | 35027 ft | 528 kts | 24° |
| 2026-04-23 10:28 | 39.29111 | -112.52614 | 35022 ft | 528 kts | 24° |
| 2026-04-23 10:29 | 39.35472 | -112.47946 | 35052 ft | 527 kts | 25° |
| 2026-04-23 10:29 | 39.41836 | -112.43263 | 35023 ft | 527 kts | 25° |
| 2026-04-23 10:30 | 39.48219 | -112.38557 | 35018 ft | 526 kts | 25° |
| 2026-04-23 10:30 | 39.54586 | -112.33854 | 35017 ft | 526 kts | 25° |
| 2026-04-23 10:31 | 39.60908 | -112.29174 | 35044 ft | 525 kts | 25° |
| 2026-04-23 10:31 | 39.67268 | -112.24454 | 35036 ft | 524 kts | 25° |
| 2026-04-23 10:32 | 39.73575 | -112.19765 | 35028 ft | 523 kts | 25° |
| 2026-04-23 10:32 | 39.79869 | -112.15076 | 35021 ft | 523 kts | 25° |
| 2026-04-23 10:33 | 39.86181 | -112.10363 | 35015 ft | 522 kts | 26° |
| 2026-04-23 10:33 | 39.92494 | -112.05639 | 35014 ft | 522 kts | 26° |
| 2026-04-23 10:34 | 39.98786 | -112.00923 | 35007 ft | 521 kts | 26° |
| 2026-04-23 10:34 | 40.05211 | -111.96686 | 35003 ft | 518 kts | 22° |
| 2026-04-23 10:35 | 40.11705 | -111.92576 | 35052 ft | 518 kts | 22° |
| 2026-04-23 10:35 | 40.18166 | -111.88470 | 35057 ft | 517 kts | 22° |
| 2026-04-23 10:36 | 40.24642 | -111.84343 | 35055 ft | 517 kts | 22° |
| 2026-04-23 10:36 | 40.30016 | -111.80909 | 35064 ft | 516 kts | 22° |
| 2026-04-23 10:37 | 40.37559 | -111.76080 | 35048 ft | 516 kts | 22° |
| 2026-04-23 10:37 | 40.42915 | -111.72643 | 35038 ft | 516 kts | 22° |
| 2026-04-23 10:38 | 40.49361 | -111.68498 | 35027 ft | 515 kts | 22° |
| 2026-04-23 10:38 | 40.55786 | -111.64360 | 35029 ft | 514 kts | 22° |
| 2026-04-23 10:39 | 40.62209 | -111.60212 | 35027 ft | 514 kts | 22° |
| 2026-04-23 10:39 | 40.68635 | -111.56055 | 35018 ft | 513 kts | 22° |
| 2026-04-23 10:40 | 40.75040 | -111.51902 | 35015 ft | 513 kts | 22° |
| 2026-04-23 10:40 | 40.81401 | -111.47768 | 34998 ft | 513 kts | 22° |
| 2026-04-23 10:41 | 40.87803 | -111.43599 | 34999 ft | 513 kts | 22° |
| 2026-04-23 10:41 | 40.94200 | -111.39424 | 34997 ft | 513 kts | 23° |
| 2026-04-23 10:42 | 41.00608 | -111.35233 | 35031 ft | 513 kts | 23° |
| 2026-04-23 10:42 | 41.06977 | -111.31055 | 34992 ft | 507 kts | 23° |
| 2026-04-23 10:43 | 41.13278 | -111.26915 | 34991 ft | 505 kts | 23° |
| 2026-04-23 10:43 | 41.19583 | -111.22767 | 34988 ft | 506 kts | 23° |
| 2026-04-23 10:44 | 41.25849 | -111.18632 | 34987 ft | 503 kts | 23° |
| 2026-04-23 10:44 | 41.32113 | -111.14490 | 34979 ft | 501 kts | 23° |
| 2026-04-23 10:45 | 41.38352 | -111.10356 | 34952 ft | 501 kts | 23° |
| 2026-04-23 10:45 | 41.44572 | -111.06226 | 34949 ft | 501 kts | 23° |
| 2026-04-23 10:46 | 41.50810 | -111.02075 | 34967 ft | 501 kts | 23° |
| 2026-04-23 10:46 | 41.57043 | -110.97917 | 34948 ft | 501 kts | 23° |
| 2026-04-23 10:47 | 41.63283 | -110.93747 | 34946 ft | 501 kts | 23° |
| 2026-04-23 10:47 | 41.69510 | -110.89576 | 34958 ft | 501 kts | 23° |
| 2026-04-23 10:48 | 41.75735 | -110.85397 | 34947 ft | 500 kts | 23° |
| 2026-04-23 10:48 | 41.81957 | -110.81212 | 34942 ft | 500 kts | 23° |
| 2026-04-23 10:49 | 41.88172 | -110.77020 | 34913 ft | 500 kts | 23° |
| 2026-04-23 10:49 | 41.94390 | -110.72819 | 34923 ft | 500 kts | 23° |
| 2026-04-23 10:50 | 42.00593 | -110.68619 | 34921 ft | 499 kts | 23° |
| 2026-04-23 10:50 | 42.06790 | -110.64412 | 34914 ft | 499 kts | 23° |
| 2026-04-23 10:51 | 42.12992 | -110.60194 | 34903 ft | 499 kts | 23° |
| 2026-04-23 10:51 | 42.19141 | -110.56003 | 34892 ft | 498 kts | 23° |
| 2026-04-23 10:52 | 42.25331 | -110.51775 | 34888 ft | 498 kts | 23° |
| 2026-04-23 10:52 | 42.31517 | -110.47538 | 34882 ft | 498 kts | 23° |
| 2026-04-23 10:53 | 42.37697 | -110.43300 | 34871 ft | 497 kts | 24° |
| 2026-04-23 10:53 | 42.43875 | -110.39049 | 34879 ft | 497 kts | 24° |
| 2026-04-23 10:54 | 42.50008 | -110.34822 | 34895 ft | 497 kts | 24° |
| 2026-04-23 10:54 | 42.56161 | -110.30571 | 34901 ft | 496 kts | 24° |
| 2026-04-23 10:55 | 42.62322 | -110.26306 | 34919 ft | 496 kts | 24° |
| 2026-04-23 10:55 | 42.68477 | -110.22035 | 34912 ft | 496 kts | 24° |
| 2026-04-23 10:56 | 42.74589 | -110.17784 | 34902 ft | 497 kts | 24° |
| 2026-04-23 10:56 | 42.80746 | -110.13492 | 34888 ft | 497 kts | 24° |
| 2026-04-23 10:57 | 42.86899 | -110.09194 | 34884 ft | 497 kts | 25° |
| 2026-04-23 10:57 | 42.93056 | -110.04885 | 34842 ft | 497 kts | 25° |
| 2026-04-23 10:58 | 42.99214 | -110.00569 | 34845 ft | 497 kts | 25° |
| 2026-04-23 10:58 | 43.05429 | -109.96459 | 34842 ft | 496 kts | 22° |
| 2026-04-23 10:59 | 43.11726 | -109.92565 | 34840 ft | 496 kts | 22° |
| 2026-04-23 10:59 | 43.17966 | -109.88650 | 34838 ft | 496 kts | 22° |
| 2026-04-23 11:00 | 43.24235 | -109.84678 | 34844 ft | 496 kts | 22° |
| 2026-04-23 11:00 | 43.30507 | -109.80687 | 34788 ft | 497 kts | 21° |
| 2026-04-23 11:01 | 43.36804 | -109.76672 | 34801 ft | 498 kts | 21° |
| 2026-04-23 11:01 | 43.43095 | -109.72651 | 34806 ft | 499 kts | 21° |
| 2026-04-23 11:02 | 43.49356 | -109.68647 | 34804 ft | 500 kts | 22° |
| 2026-04-23 11:02 | 43.55656 | -109.64595 | 34787 ft | 500 kts | 21° |
| 2026-04-23 11:03 | 43.61963 | -109.60533 | 34801 ft | 500 kts | 21° |
| 2026-04-23 11:03 | 43.68270 | -109.56465 | 34797 ft | 500 kts | 21° |
| 2026-04-23 11:04 | 43.74577 | -109.52390 | 34779 ft | 499 kts | 23° |
| 2026-04-23 11:04 | 43.80870 | -109.48311 | 34784 ft | 498 kts | 23° |
| 2026-04-23 11:05 | 43.87140 | -109.44238 | 34737 ft | 498 kts | 22° |
| 2026-04-23 11:05 | 43.93420 | -109.40150 | 34748 ft | 498 kts | 23° |
| 2026-04-23 11:06 | 44.02784 | -109.34036 | 34718 ft | 497 kts | 22° |
| 2026-04-23 11:07 | 44.09048 | -109.29935 | 34692 ft | 497 kts | 23° |
| 2026-04-23 11:07 | 44.15312 | -109.25824 | 34716 ft | 497 kts | 24° |
| 2026-04-23 11:08 | 44.21575 | -109.21702 | 34687 ft | 498 kts | 24° |
| 2026-04-23 11:08 | 44.27836 | -109.17572 | 34688 ft | 498 kts | 24° |
| 2026-04-23 11:09 | 44.34103 | -109.13428 | 34739 ft | 498 kts | 24° |
| 2026-04-23 11:09 | 44.40326 | -109.09304 | 34769 ft | 498 kts | 24° |
| 2026-04-23 11:10 | 44.46594 | -109.05141 | 34764 ft | 499 kts | 24° |
| 2026-04-23 11:10 | 44.52879 | -109.00955 | 34765 ft | 499 kts | 24° |
| 2026-04-23 11:11 | 44.59151 | -108.96770 | 34780 ft | 500 kts | 25° |
| 2026-04-23 11:11 | 44.65397 | -108.92590 | 34771 ft | 500 kts | 25° |
| 2026-04-23 11:12 | 44.71681 | -108.88376 | 34741 ft | 500 kts | 25° |
| 2026-04-23 11:12 | 44.77963 | -108.84152 | 34754 ft | 500 kts | 25° |
| 2026-04-23 11:13 | 44.84237 | -108.79923 | 34755 ft | 500 kts | 25° |
| 2026-04-23 11:13 | 44.90514 | -108.75684 | 34757 ft | 500 kts | 25° |
| 2026-04-23 11:14 | 44.96792 | -108.71435 | 34706 ft | 500 kts | 25° |
| 2026-04-23 11:14 | 45.03017 | -108.67208 | 34724 ft | 499 kts | 25° |
| 2026-04-23 11:15 | 45.09279 | -108.62945 | 34717 ft | 499 kts | 25° |
| 2026-04-23 11:15 | 45.15539 | -108.58674 | 34722 ft | 499 kts | 25° |
| 2026-04-23 11:16 | 45.21800 | -108.54394 | 34724 ft | 499 kts | 25° |
| 2026-04-23 11:16 | 45.28049 | -108.50110 | 34721 ft | 499 kts | 25° |
| 2026-04-23 11:17 | 45.34312 | -108.45806 | 34710 ft | 500 kts | 25° |
| 2026-04-23 11:17 | 45.40577 | -108.41489 | 34701 ft | 500 kts | 25° |
| 2026-04-23 11:18 | 45.46844 | -108.37160 | 34708 ft | 501 kts | 25° |
| 2026-04-23 11:18 | 45.53115 | -108.32820 | 34717 ft | 501 kts | 25° |
| 2026-04-23 11:19 | 45.59381 | -108.28470 | 34715 ft | 501 kts | 26° |
| 2026-04-23 11:19 | 45.65620 | -108.24129 | 34692 ft | 501 kts | 26° |
| 2026-04-23 11:20 | 45.71905 | -108.19745 | 34709 ft | 502 kts | 26° |
| 2026-04-23 11:20 | 45.78178 | -108.15358 | 34712 ft | 501 kts | 26° |
| 2026-04-23 11:21 | 45.84444 | -108.10965 | 34699 ft | 501 kts | 26° |
| 2026-04-23 11:21 | 45.90712 | -108.06560 | 34670 ft | 500 kts | 26° |
| 2026-04-23 11:22 | 45.96940 | -108.02097 | 34656 ft | 500 kts | 30° |
| 2026-04-23 11:22 | 46.02646 | -107.96504 | 34643 ft | 500 kts | 40° |
| 2026-04-23 11:23 | 46.07837 | -107.89862 | 34637 ft | 500 kts | 42° |
| 2026-04-23 11:23 | 46.13045 | -107.83210 | 34642 ft | 500 kts | 42° |
| 2026-04-23 11:24 | 46.18239 | -107.76522 | 34627 ft | 501 kts | 42° |
| 2026-04-23 11:24 | 46.23436 | -107.69790 | 34643 ft | 501 kts | 43° |
| 2026-04-23 11:25 | 46.28627 | -107.63046 | 34635 ft | 501 kts | 43° |
| 2026-04-23 11:25 | 46.33779 | -107.56336 | 34616 ft | 502 kts | 43° |
| 2026-04-23 11:26 | 46.38964 | -107.49563 | 34608 ft | 502 kts | 42° |
| 2026-04-23 11:26 | 46.44155 | -107.42764 | 34574 ft | 504 kts | 43° |
| 2026-04-23 11:27 | 46.48483 | -107.37083 | 34579 ft | 504 kts | 43° |
| 2026-04-23 11:27 | 46.53688 | -107.30229 | 34584 ft | 505 kts | 43° |
| 2026-04-23 11:28 | 46.58892 | -107.23361 | 34598 ft | 506 kts | 43° |
| 2026-04-23 11:28 | 46.64118 | -107.16449 | 34567 ft | 508 kts | 43° |
| 2026-04-23 11:29 | 46.69349 | -107.09507 | 34559 ft | 509 kts | 43° |
| 2026-04-23 11:29 | 46.74587 | -107.02539 | 34562 ft | 511 kts | 43° |
| 2026-04-23 11:30 | 46.79839 | -106.95533 | 34558 ft | 512 kts | 43° |
| 2026-04-23 11:30 | 46.85100 | -106.88494 | 34549 ft | 514 kts | 43° |
| 2026-04-23 11:31 | 46.90377 | -106.81416 | 34559 ft | 515 kts | 43° |
| 2026-04-23 11:31 | 46.95636 | -106.74341 | 34545 ft | 517 kts | 44° |
| 2026-04-23 11:32 | 47.00925 | -106.67206 | 34563 ft | 518 kts | 44° |
| 2026-04-23 11:32 | 47.06234 | -106.60022 | 34539 ft | 519 kts | 44° |
| 2026-04-23 11:33 | 47.11542 | -106.52820 | 34541 ft | 520 kts | 44° |
| 2026-04-23 11:33 | 47.16866 | -106.45575 | 34556 ft | 522 kts | 44° |
| 2026-04-23 11:34 | 47.22202 | -106.38293 | 34540 ft | 523 kts | 44° |
| 2026-04-23 11:34 | 47.27505 | -106.31036 | 34560 ft | 524 kts | 44° |
| 2026-04-23 11:35 | 47.32838 | -106.23718 | 34556 ft | 523 kts | 44° |
| 2026-04-23 11:35 | 47.38162 | -106.16389 | 34545 ft | 523 kts | 44° |
| 2026-04-23 11:36 | 47.43486 | -106.09038 | 34511 ft | 523 kts | 44° |
| 2026-04-23 11:36 | 47.48766 | -106.01731 | 34456 ft | 523 kts | 44° |
| 2026-04-23 11:37 | 47.54422 | -105.94952 | 34486 ft | 523 kts | 38° |
| 2026-04-23 11:37 | 47.60184 | -105.88394 | 34483 ft | 522 kts | 38° |
| 2026-04-23 11:38 | 47.65944 | -105.81809 | 34473 ft | 522 kts | 38° |
| 2026-04-23 11:38 | 47.71696 | -105.75214 | 34452 ft | 523 kts | 38° |
| 2026-04-23 11:39 | 47.77450 | -105.68593 | 34421 ft | 524 kts | 38° |
| 2026-04-23 11:39 | 47.83191 | -105.61969 | 34409 ft | 527 kts | 38° |
| 2026-04-23 11:40 | 47.88981 | -105.55265 | 34425 ft | 529 kts | 38° |
| 2026-04-23 11:40 | 47.94807 | -105.48501 | 34432 ft | 530 kts | 38° |
| 2026-04-23 11:41 | 48.00634 | -105.41714 | 34446 ft | 531 kts | 38° |
| 2026-04-23 11:41 | 48.06449 | -105.34924 | 34470 ft | 530 kts | 38° |
| 2026-04-23 11:42 | 48.12252 | -105.28128 | 34437 ft | 529 kts | 38° |
| 2026-04-23 11:42 | 48.18031 | -105.21339 | 34408 ft | 528 kts | 38° |
| 2026-04-23 11:43 | 48.23795 | -105.14547 | 34367 ft | 526 kts | 38° |
| 2026-04-23 11:43 | 48.29501 | -105.07803 | 34343 ft | 525 kts | 38° |
| 2026-04-23 11:44 | 48.35240 | -105.01004 | 34342 ft | 524 kts | 38° |
| 2026-04-23 11:44 | 48.40956 | -104.94210 | 34296 ft | 523 kts | 38° |
| 2026-04-23 11:45 | 48.46679 | -104.87387 | 34306 ft | 523 kts | 38° |
| 2026-04-23 11:45 | 48.52381 | -104.80571 | 34327 ft | 522 kts | 39° |
| 2026-04-23 11:46 | 48.58058 | -104.73764 | 34316 ft | 521 kts | 39° |
| 2026-04-23 11:46 | 48.63700 | -104.66979 | 34297 ft | 521 kts | 39° |
| 2026-04-23 11:47 | 48.69369 | -104.60139 | 34294 ft | 521 kts | 39° |
| 2026-04-23 11:47 | 48.75035 | -104.53284 | 34301 ft | 521 kts | 39° |
| 2026-04-23 11:48 | 48.80662 | -104.46457 | 34302 ft | 521 kts | 41° |
| 2026-04-23 11:48 | 48.86320 | -104.39571 | 34313 ft | 521 kts | 40° |
| 2026-04-23 11:49 | 48.91978 | -104.32664 | 34307 ft | 521 kts | 40° |
| 2026-04-23 11:49 | 48.97624 | -104.25751 | 34299 ft | 521 kts | 40° |
| 2026-04-23 11:50 | 49.03274 | -104.18815 | 34264 ft | 522 kts | 41° |
| 2026-04-23 11:50 | 49.08938 | -104.11837 | 34260 ft | 523 kts | 42° |
| 2026-04-23 11:51 | 49.14605 | -104.04834 | 34284 ft | 524 kts | 41° |
| 2026-04-23 11:51 | 49.20281 | -103.97801 | 34291 ft | 525 kts | 41° |
| 2026-04-23 11:52 | 49.25959 | -103.90743 | 34302 ft | 526 kts | 41° |
| 2026-04-23 11:52 | 49.31639 | -103.83665 | 34296 ft | 527 kts | 42° |
| 2026-04-23 11:53 | 49.37292 | -103.76593 | 34296 ft | 528 kts | 42° |
| 2026-04-23 11:53 | 49.42973 | -103.69466 | 34312 ft | 527 kts | 42° |
| 2026-04-23 11:54 | 49.48634 | -103.62343 | 34309 ft | 526 kts | 42° |
| 2026-04-23 11:54 | 49.54293 | -103.55200 | 34277 ft | 525 kts | 42° |
| 2026-04-23 11:55 | 49.59920 | -103.48075 | 34306 ft | 523 kts | 43° |
| 2026-04-23 11:55 | 49.65527 | -103.40954 | 34291 ft | 521 kts | 43° |
| 2026-04-23 11:56 | 49.71121 | -103.33826 | 34281 ft | 520 kts | 43° |
| 2026-04-23 11:56 | 49.76660 | -103.26748 | 34267 ft | 519 kts | 43° |
| 2026-04-23 11:57 | 49.82213 | -103.19629 | 34264 ft | 518 kts | 43° |
| 2026-04-23 11:57 | 49.87755 | -103.12504 | 34253 ft | 518 kts | 43° |
| 2026-04-23 11:58 | 49.93297 | -103.05356 | 34246 ft | 518 kts | 43° |
| 2026-04-23 11:58 | 49.98846 | -102.98176 | 34253 ft | 519 kts | 43° |
| 2026-04-23 11:59 | 50.04387 | -102.90984 | 34262 ft | 520 kts | 43° |
| 2026-04-23 11:59 | 50.09901 | -102.83805 | 34246 ft | 521 kts | 43° |
| 2026-04-23 12:00 | 50.15476 | -102.76525 | 34269 ft | 523 kts | 43° |
| 2026-04-23 12:00 | 50.21058 | -102.69212 | 34297 ft | 524 kts | 43° |
| 2026-04-23 12:01 | 50.26636 | -102.61884 | 34304 ft | 524 kts | 43° |
| 2026-04-23 12:01 | 50.32183 | -102.54583 | 34311 ft | 524 kts | 43° |
| 2026-04-23 12:02 | 50.37646 | -102.47062 | 34298 ft | 521 kts | 47° |
| 2026-04-23 12:02 | 50.42967 | -102.39309 | 34312 ft | 523 kts | 46° |
| 2026-04-23 12:03 | 50.48300 | -102.31632 | 34317 ft | 522 kts | 46° |
| 2026-04-23 12:03 | 50.53638 | -102.23872 | 34321 ft | 522 kts | 46° |
| 2026-04-23 12:04 | 50.58956 | -102.16095 | 34291 ft | 522 kts | 47° |
| 2026-04-23 12:04 | 50.64270 | -102.08294 | 34294 ft | 523 kts | 47° |
| 2026-04-23 12:05 | 50.69594 | -102.00453 | 34301 ft | 524 kts | 47° |
| 2026-04-23 12:05 | 50.74922 | -101.92584 | 34327 ft | 525 kts | 47° |
| 2026-04-23 12:06 | 50.80218 | -101.84735 | 34328 ft | 525 kts | 47° |
| 2026-04-23 12:06 | 50.88206 | -101.72848 | 34313 ft | 528 kts | 48° |
| 2026-04-23 12:07 | 50.90888 | -101.68839 | 34593 ft | 530 kts | 47° |
| 2026-04-23 12:07 | 50.93564 | -101.64838 | 35017 ft | 528 kts | 47° |
| 2026-04-23 12:07 | 50.96234 | -101.60840 | 35446 ft | 527 kts | 46° |
| 2026-04-23 12:07 | 50.98895 | -101.56849 | 35848 ft | 526 kts | 46° |
| 2026-04-23 12:08 | 51.01547 | -101.52863 | 36233 ft | 525 kts | 45° |
| 2026-04-23 12:08 | 51.04193 | -101.48881 | 36337 ft | 519 kts | 45° |
| 2026-04-23 12:08 | 51.09403 | -101.41021 | 36326 ft | 518 kts | 46° |
| 2026-04-23 12:09 | 51.14672 | -101.33037 | 36344 ft | 524 kts | 46° |
| 2026-04-23 12:09 | 51.19945 | -101.25029 | 36353 ft | 523 kts | 46° |
| 2026-04-23 12:10 | 51.25179 | -101.17051 | 36353 ft | 523 kts | 46° |
| 2026-04-23 12:10 | 51.30435 | -101.09013 | 36400 ft | 522 kts | 46° |
| 2026-04-23 12:11 | 51.35679 | -101.00968 | 36341 ft | 523 kts | 46° |
| 2026-04-23 12:11 | 51.40932 | -100.92879 | 36355 ft | 524 kts | 46° |
| 2026-04-23 12:12 | 51.46185 | -100.84764 | 36371 ft | 525 kts | 46° |
| 2026-04-23 12:12 | 51.51448 | -100.76606 | 36393 ft | 526 kts | 46° |
| 2026-04-23 12:13 | 51.56712 | -100.68421 | 36417 ft | 526 kts | 46° |
| 2026-04-23 12:13 | 51.61983 | -100.60194 | 36403 ft | 530 kts | 46° |
| 2026-04-23 12:14 | 51.67252 | -100.51945 | 36403 ft | 527 kts | 46° |
| 2026-04-23 12:14 | 51.72474 | -100.43741 | 36409 ft | 528 kts | 46° |
| 2026-04-23 12:15 | 51.77728 | -100.35458 | 36406 ft | 528 kts | 47° |
| 2026-04-23 12:15 | 51.82974 | -100.27159 | 36397 ft | 528 kts | 47° |
| 2026-04-23 12:16 | 51.88208 | -100.18850 | 36406 ft | 527 kts | 46° |
| 2026-04-23 12:16 | 51.93446 | -100.10506 | 36404 ft | 527 kts | 46° |
| 2026-04-23 12:17 | 51.98648 | -100.02197 | 36406 ft | 527 kts | 46° |
| 2026-04-23 12:17 | 52.02995 | -99.95159 | 36401 ft | 526 kts | 47° |
| 2026-04-23 12:18 | 52.08107 | -99.86648 | 36411 ft | 526 kts | 47° |
| 2026-04-23 12:18 | 52.13212 | -99.78191 | 36364 ft | 527 kts | 47° |
| 2026-04-23 12:19 | 52.18369 | -99.69658 | 36398 ft | 529 kts | 47° |
| 2026-04-23 12:19 | 52.23541 | -99.61075 | 36415 ft | 531 kts | 47° |
| 2026-04-23 12:20 | 52.28729 | -99.52436 | 36440 ft | 533 kts | 47° |
| 2026-04-23 12:20 | 52.33915 | -99.43759 | 36449 ft | 534 kts | 47° |
| 2026-04-23 12:21 | 52.39096 | -99.35052 | 36455 ft | 534 kts | 48° |
| 2026-04-23 12:21 | 52.44270 | -99.26322 | 36477 ft | 534 kts | 47° |
| 2026-04-23 12:22 | 52.49441 | -99.17565 | 36470 ft | 533 kts | 48° |
| 2026-04-23 12:22 | 52.54554 | -99.08876 | 36479 ft | 532 kts | 48° |
| 2026-04-23 12:23 | 52.59690 | -99.00116 | 36455 ft | 531 kts | 47° |
| 2026-04-23 12:23 | 52.64725 | -98.91498 | 36476 ft | 531 kts | 47° |
| 2026-04-23 12:24 | 52.69840 | -98.82710 | 36489 ft | 532 kts | 47° |
| 2026-04-23 12:24 | 52.74959 | -98.73885 | 36510 ft | 532 kts | 47° |
| 2026-04-23 12:25 | 52.80070 | -98.65043 | 36509 ft | 532 kts | 48° |
| 2026-04-23 12:25 | 52.85180 | -98.56168 | 36549 ft | 531 kts | 47° |
| 2026-04-23 12:26 | 52.90242 | -98.47347 | 36520 ft | 531 kts | 47° |
| 2026-04-23 12:26 | 52.95313 | -98.38477 | 36518 ft | 530 kts | 47° |
| 2026-04-23 12:27 | 53.00388 | -98.29564 | 36507 ft | 531 kts | 47° |
| 2026-04-23 12:27 | 53.05455 | -98.20636 | 36512 ft | 532 kts | 47° |
| 2026-04-23 12:28 | 53.10529 | -98.11661 | 36545 ft | 532 kts | 47° |
| 2026-04-23 12:28 | 53.15602 | -98.02657 | 36543 ft | 533 kts | 47° |
| 2026-04-23 12:29 | 53.20677 | -97.93616 | 36559 ft | 534 kts | 47° |
| 2026-04-23 12:29 | 53.25717 | -97.84601 | 36563 ft | 535 kts | 47° |
| 2026-04-23 12:30 | 53.30797 | -97.75482 | 36591 ft | 535 kts | 48° |
| 2026-04-23 12:30 | 53.35865 | -97.66351 | 36561 ft | 535 kts | 47° |
| 2026-04-23 12:31 | 53.40924 | -97.57203 | 36577 ft | 535 kts | 47° |
| 2026-04-23 12:31 | 53.45984 | -97.48017 | 36588 ft | 536 kts | 48° |
| 2026-04-23 12:32 | 53.51043 | -97.38798 | 36608 ft | 536 kts | 48° |
| 2026-04-23 12:32 | 53.56071 | -97.29599 | 36595 ft | 538 kts | 47° |
| 2026-04-23 12:33 | 53.61138 | -97.20298 | 36602 ft | 539 kts | 47° |
| 2026-04-23 12:33 | 53.66207 | -97.10954 | 36624 ft | 541 kts | 47° |
| 2026-04-23 12:34 | 53.71288 | -97.01553 | 36666 ft | 543 kts | 47° |
| 2026-04-23 12:34 | 53.76372 | -96.92108 | 36677 ft | 543 kts | 47° |
| 2026-04-23 12:35 | 53.81455 | -96.82630 | 36690 ft | 545 kts | 47° |
| 2026-04-23 12:35 | 53.86544 | -96.73103 | 36713 ft | 544 kts | 47° |
| 2026-04-23 12:36 | 53.91615 | -96.63573 | 36724 ft | 544 kts | 47° |
| 2026-04-23 12:36 | 53.96647 | -96.54080 | 36725 ft | 544 kts | 47° |
| 2026-04-23 12:37 | 54.01703 | -96.44504 | 36745 ft | 544 kts | 47° |
| 2026-04-23 12:37 | 54.06743 | -96.34919 | 36747 ft | 543 kts | 47° |
| 2026-04-23 12:38 | 54.11775 | -96.25314 | 36756 ft | 544 kts | 47° |
| 2026-04-23 12:38 | 54.16812 | -96.15661 | 36757 ft | 544 kts | 47° |
| 2026-04-23 12:39 | 54.21842 | -96.05982 | 36790 ft | 545 kts | 47° |
| 2026-04-23 12:39 | 54.26878 | -95.96253 | 36792 ft | 546 kts | 47° |
| 2026-04-23 12:40 | 54.31904 | -95.86504 | 36834 ft | 546 kts | 48° |
| 2026-04-23 12:40 | 54.36902 | -95.76771 | 36858 ft | 547 kts | 47° |
| 2026-04-23 12:41 | 54.41925 | -95.66949 | 36889 ft | 547 kts | 47° |
| 2026-04-23 12:41 | 54.46940 | -95.57103 | 36894 ft | 547 kts | 47° |
| 2026-04-23 12:42 | 54.51938 | -95.47251 | 36875 ft | 547 kts | 48° |
| 2026-04-23 12:42 | 54.56931 | -95.37369 | 36897 ft | 547 kts | 48° |
| 2026-04-23 12:43 | 54.61925 | -95.27445 | 36894 ft | 547 kts | 47° |
| 2026-04-23 12:43 | 54.66066 | -95.19187 | 36916 ft | 548 kts | 47° |